Time;durP1;ratioP1;P1;durP2;ratioP2;P2;SDS_P1;SDS_P2;PMS_P1;PMS_P2;Temp;Humidity;BMP_temperature;BMP_pressure;BME280_temperature;BME280_humidity;BME280_pressure;Samples;Min_cycle;Max_cycle;Signal;HPM_P1;HPM_P2
2023/08/08 00:02:15;;;;;;;1.55;1.40;;;20.90;52.50;;;;;;5004442;28;20224;-80
2023/08/08 00:04:42;;;;;;;1.48;1.38;;;20.90;52.50;;;;;;5021049;28;20192;-80
2023/08/08 00:07:10;;;;;;;1.33;1.30;;;20.90;52.50;;;;;;5020565;28;20200;-80
2023/08/08 00:09:37;;;;;;;1.25;1.13;;;20.90;52.50;;;;;;5020817;28;20220;-80
2023/08/08 00:12:08;;;;;;;1.58;1.40;;;20.90;52.50;;;;;;5020900;28;20237;-78
2023/08/08 00:14:35;;;;;;;1.50;1.40;;;20.90;52.50;;;;;;5020713;28;20555;-80
2023/08/08 00:17:02;;;;;;;1.67;1.20;;;20.80;52.50;;;;;;5019739;28;20208;-80
2023/08/08 00:19:29;;;;;;;1.30;1.20;;;20.90;52.60;;;;;;5004353;28;20258;-80
2023/08/08 00:21:57;;;;;;;1.23;1.20;;;20.80;52.60;;;;;;5036407;28;20224;-80
2023/08/08 00:24:24;;;;;;;1.30;1.20;;;20.80;52.60;;;;;;5018249;28;20250;-80
2023/08/08 00:26:51;;;;;;;1.40;1.30;;;20.80;52.60;;;;;;5018363;28;20196;-80
2023/08/08 00:29:19;;;;;;;1.25;1.25;;;20.80;52.60;;;;;;5019105;28;20226;-80
2023/08/08 00:31:47;;;;;;;1.42;1.33;;;20.80;52.70;;;;;;5003334;28;20675;-80
2023/08/08 00:34:13;;;;;;;1.63;1.02;;;20.80;52.60;;;;;;5019767;28;20207;-80
2023/08/08 00:36:40;;;;;;;1.23;1.15;;;20.80;52.70;;;;;;5019256;28;20200;-80
2023/08/08 00:39:08;;;;;;;1.40;1.30;;;20.80;52.70;;;;;;5019365;28;20624;-80
2023/08/08 00:41:34;;;;;;;1.50;1.40;;;20.80;52.70;;;;;;5019641;28;20236;-80
2023/08/08 00:44:02;;;;;;;1.27;1.17;;;20.80;52.70;;;;;;5020077;28;20192;-80
2023/08/08 00:46:31;;;;;;;1.20;1.10;;;20.80;52.80;;;;;;5020095;28;20200;-80
2023/08/08 00:48:59;;;;;;;1.42;1.25;;;20.80;52.70;;;;;;5019937;28;20188;-80
2023/08/08 00:51:25;;;;;;;1.35;1.25;;;20.70;52.70;;;;;;5019875;28;20663;-80
2023/08/08 00:53:55;;;;;;;1.88;1.40;;;20.70;52.80;;;;;;5029850;28;20200;-80
2023/08/08 00:56:22;;;;;;;1.20;1.10;;;20.70;53.40;;;;;;5035518;28;20592;-80
2023/08/08 00:58:50;;;;;;;1.20;1.10;;;20.70;52.80;;;;;;5035177;28;20200;-79
2023/08/08 01:01:17;;;;;;;1.30;1.20;;;20.70;52.80;;;;;;4996930;28;20266;-79
2023/08/08 01:03:46;;;;;;;1.35;1.25;;;20.80;52.90;;;;;;5023763;28;20666;-79
2023/08/08 01:06:17;;;;;;;1.30;1.20;;;20.70;52.80;;;;;;5023696;28;20258;-79
2023/08/08 01:08:46;;;;;;;1.50;1.40;;;20.80;53.00;;;;;;5021964;28;20184;-79
2023/08/08 01:11:14;;;;;;;1.40;1.30;;;20.70;52.90;;;;;;5022577;28;20239;-79
2023/08/08 01:13:42;;;;;;;0.93;0.90;;;20.70;52.90;;;;;;5022346;28;20228;-79
2023/08/08 01:16:09;;;;;;;1.50;1.40;;;20.80;53.00;;;;;;5002832;28;20203;-79
2023/08/08 01:18:37;;;;;;;1.42;1.33;;;20.70;52.90;;;;;;5017248;28;20196;-79
2023/08/08 01:21:05;;;;;;;1.30;1.20;;;20.70;53.00;;;;;;5017689;28;20215;-79
2023/08/08 01:23:35;;;;;;;1.15;1.13;;;20.70;53.00;;;;;;5018783;28;20246;-78
2023/08/08 01:26:04;;;;;;;1.20;1.10;;;20.70;53.00;;;;;;5021991;28;20192;-79
2023/08/08 01:28:31;;;;;;;1.20;1.10;;;20.70;53.00;;;;;;5020649;28;20208;-79
2023/08/08 01:30:57;;;;;;;1.30;1.20;;;20.70;53.00;;;;;;5021355;28;20232;-80
2023/08/08 01:33:25;;;;;;;1.48;1.38;;;20.70;53.00;;;;;;5017947;28;20286;-80
2023/08/08 01:35:54;;;;;;;1.25;1.15;;;20.70;53.00;;;;;;5018142;28;20196;-80
2023/08/08 01:38:26;;;;;;;1.27;1.20;;;20.70;53.00;;;;;;5017803;28;20199;-80
2023/08/08 01:40:54;;;;;;;1.80;1.17;;;20.70;53.00;;;;;;5017897;28;20266;-80
2023/08/08 01:43:23;;;;;;;1.88;1.30;;;20.70;53.00;;;;;;5017642;28;20204;-80
2023/08/08 01:45:50;;;;;;;1.88;1.50;;;20.70;53.00;;;;;;5017725;28;20204;-80
2023/08/08 01:48:17;;;;;;;1.55;1.10;;;20.70;52.80;;;;;;5017073;28;20642;-80
2023/08/08 01:50:44;;;;;;;1.33;1.23;;;20.70;53.00;;;;;;5017040;28;20262;-80
2023/08/08 01:53:11;;;;;;;1.33;1.23;;;20.70;52.90;;;;;;5017548;28;20196;-80
2023/08/08 01:55:38;;;;;;;1.52;1.20;;;20.70;53.00;;;;;;5016934;28;20651;-80
2023/08/08 01:58:06;;;;;;;1.27;1.17;;;20.70;53.60;;;;;;5016374;28;20231;-80
2023/08/08 02:00:36;;;;;;;1.40;1.30;;;20.70;53.00;;;;;;5019169;28;20215;-80
2023/08/08 02:03:04;;;;;;;1.02;1.02;;;20.70;53.00;;;;;;5020661;28;20203;-80
2023/08/08 02:05:31;;;;;;;1.40;1.30;;;20.70;53.00;;;;;;5004517;28;20219;-80
2023/08/08 02:07:58;;;;;;;1.15;1.10;;;20.70;53.00;;;;;;5003363;28;20258;-80
2023/08/08 02:10:25;;;;;;;1.35;1.25;;;20.70;53.00;;;;;;5016549;28;20227;-80
2023/08/08 02:12:52;;;;;;;1.98;1.38;;;20.70;53.10;;;;;;5016869;28;20219;-80
2023/08/08 02:15:19;;;;;;;1.40;1.30;;;20.70;53.10;;;;;;5017207;28;20226;-80
2023/08/08 02:17:51;;;;;;;1.40;1.30;;;20.70;53.00;;;;;;5017454;28;20572;-80
2023/08/08 02:20:18;;;;;;;1.40;1.20;;;20.70;53.10;;;;;;5017494;28;20208;-80
2023/08/08 02:22:46;;;;;;;1.40;1.30;;;20.70;53.70;;;;;;5002280;28;20758;-80
2023/08/08 02:25:13;;;;;;;1.25;1.20;;;20.70;53.10;;;;;;5017781;28;20200;-80
2023/08/08 02:27:40;;;;;;;1.30;1.20;;;20.70;53.00;;;;;;5018281;28;20203;-80
2023/08/08 02:30:11;;;;;;;1.27;1.17;;;20.70;53.00;;;;;;5018906;28;20208;-80
2023/08/08 02:32:39;;;;;;;1.45;1.30;;;20.70;53.10;;;;;;5017919;28;20263;-80
2023/08/08 02:35:08;;;;;;;1.20;1.13;;;20.70;53.10;;;;;;5018293;28;20199;-80
2023/08/08 02:37:35;;;;;;;1.40;1.30;;;20.70;53.00;;;;;;5017414;28;20227;-80
2023/08/08 02:40:03;;;;;;;1.17;1.15;;;20.70;53.00;;;;;;5018224;28;20206;-80
2023/08/08 02:42:31;;;;;;;1.50;1.40;;;20.70;53.10;;;;;;5021943;28;20210;-80
2023/08/08 02:44:58;;;;;;;1.30;1.20;;;20.70;53.10;;;;;;5022021;28;20199;-80
2023/08/08 02:47:25;;;;;;;1.20;1.10;;;20.70;53.10;;;;;;5020914;28;20196;-80
2023/08/08 02:49:52;;;;;;;1.40;1.30;;;20.70;53.10;;;;;;5021099;28;20642;-80
2023/08/08 02:52:21;;;;;;;1.33;1.23;;;20.70;53.10;;;;;;5020816;28;20188;-80
2023/08/08 02:54:48;;;;;;;1.33;1.23;;;20.60;53.00;;;;;;5021246;28;20574;-80
2023/08/08 02:57:15;;;;;;;1.25;1.15;;;20.70;53.10;;;;;;5020908;28;20188;-80
2023/08/08 02:59:44;;;;;;;1.23;1.13;;;20.60;53.00;;;;;;5021209;28;20196;-80
2023/08/08 03:02:11;;;;;;;1.30;1.20;;;20.70;53.20;;;;;;5004642;28;20426;-80
2023/08/08 03:04:40;;;;;;;1.45;1.35;;;20.70;53.10;;;;;;5019639;28;20196;-80
2023/08/08 03:07:08;;;;;;;1.58;1.48;;;20.70;53.10;;;;;;5020036;28;20200;-80
2023/08/08 03:09:38;;;;;;;1.33;1.25;;;20.70;53.10;;;;;;5020434;28;20565;-80
2023/08/08 03:12:07;;;;;;;1.33;1.30;;;20.70;53.20;;;;;;5020182;28;20224;-80
2023/08/08 03:14:35;;;;;;;1.33;1.23;;;20.60;53.20;;;;;;5020820;28;20666;-80
2023/08/08 03:17:04;;;;;;;1.10;1.00;;;20.60;53.20;;;;;;5020766;28;20239;-80
2023/08/08 03:19:32;;;;;;;1.40;1.30;;;20.70;53.30;;;;;;5021224;28;20200;-80
2023/08/08 03:22:01;;;;;;;1.10;1.10;;;20.70;53.20;;;;;;5021092;28;20390;-80
2023/08/08 03:24:28;;;;;;;1.10;1.10;;;20.70;53.30;;;;;;5004212;28;20200;-80
2023/08/08 03:26:57;;;;;;;1.38;1.27;;;20.70;53.20;;;;;;5020505;28;20218;-80
2023/08/08 03:29:24;;;;;;;1.33;1.23;;;20.70;53.10;;;;;;5020075;28;20203;-80
2023/08/08 03:31:51;;;;;;;1.08;1.08;;;20.80;53.20;;;;;;5019986;28;20220;-80
2023/08/08 03:34:19;;;;;;;1.23;1.20;;;20.80;53.00;;;;;;5003372;28;20231;-80
2023/08/08 03:36:46;;;;;;;1.25;1.15;;;20.80;52.90;;;;;;5019887;28;20192;-80
2023/08/08 03:39:14;;;;;;;1.30;1.10;;;20.90;52.90;;;;;;5019436;28;20713;-80
2023/08/08 03:41:41;;;;;;;1.27;1.13;;;20.90;52.80;;;;;;5019657;28;20212;-79
2023/08/08 03:44:09;;;;;;;1.30;1.20;;;20.90;52.80;;;;;;5019871;28;20238;-80
2023/08/08 03:46:36;;;;;;;1.40;1.30;;;21.00;52.80;;;;;;5019382;28;20295;-79
2023/08/08 03:49:03;;;;;;;1.40;1.30;;;20.90;52.60;;;;;;5003176;28;20196;-79
2023/08/08 03:51:30;;;;;;;1.20;1.10;;;21.00;52.70;;;;;;5018698;28;20224;-80
2023/08/08 03:53:58;;;;;;;1.33;1.23;;;21.00;52.80;;;;;;5018871;28;20196;-80
2023/08/08 03:56:25;;;;;;;1.40;1.30;;;21.00;52.70;;;;;;5019140;28;20258;-80
2023/08/08 03:58:54;;;;;;;1.40;1.30;;;21.00;52.60;;;;;;5018626;28;20200;-79
2023/08/08 04:01:23;;;;;;;1.40;1.10;;;21.00;52.60;;;;;;5019136;28;20207;-79
2023/08/08 04:03:51;;;;;;;1.40;1.30;;;21.00;53.20;;;;;;5018862;28;20204;-79
2023/08/08 04:06:17;;;;;;;1.25;1.15;;;21.00;52.60;;;;;;5018903;28;20199;-79
2023/08/08 04:08:44;;;;;;;1.30;1.20;;;21.00;52.60;;;;;;5019004;28;20211;-79
2023/08/08 04:11:12;;;;;;;1.40;1.30;;;21.10;52.60;;;;;;5018912;28;20718;-79
2023/08/08 04:13:39;;;;;;;1.30;1.20;;;21.00;52.50;;;;;;5018663;28;20283;-80
2023/08/08 04:16:06;;;;;;;1.40;1.30;;;21.10;52.60;;;;;;5019275;28;20294;-80
2023/08/08 04:18:35;;;;;;;1.85;1.30;;;21.00;52.50;;;;;;5002965;28;20207;-80
2023/08/08 04:21:02;;;;;;;1.50;1.40;;;21.00;52.50;;;;;;5018882;28;20220;-80
2023/08/08 04:23:28;;;;;;;1.30;1.20;;;21.00;52.60;;;;;;5018710;28;20200;-80
2023/08/08 04:25:55;;;;;;;1.05;1.05;;;21.00;52.60;;;;;;5018559;28;20204;-80
2023/08/08 04:28:23;;;;;;;1.35;1.27;;;21.00;52.60;;;;;;5019102;28;20273;-80
2023/08/08 04:30:50;;;;;;;1.20;1.10;;;21.00;52.60;;;;;;5003106;28;20258;-80
2023/08/08 04:33:17;;;;;;;1.30;1.20;;;21.00;52.60;;;;;;5018956;28;20298;-79
2023/08/08 04:35:47;;;;;;;1.20;1.20;;;21.00;52.60;;;;;;5019289;28;20643;-80
2023/08/08 04:38:15;;;;;;;1.52;1.35;;;21.00;52.70;;;;;;5018648;28;20196;-80
2023/08/08 04:40:42;;;;;;;0.95;0.95;;;21.00;52.70;;;;;;5019261;28;20273;-78
2023/08/08 04:43:09;;;;;;;1.50;1.40;;;21.00;52.60;;;;;;5002765;28;20211;-78
2023/08/08 04:45:37;;;;;;;1.23;1.13;;;21.00;52.70;;;;;;5018539;28;20227;-78
2023/08/08 04:48:04;;;;;;;1.10;1.10;;;21.00;52.70;;;;;;5018454;28;20239;-78
2023/08/08 04:50:32;;;;;;;1.30;1.20;;;21.00;52.70;;;;;;5021123;28;20246;-78
2023/08/08 04:53:00;;;;;;;1.98;1.30;;;20.90;52.60;;;;;;4987849;28;20216;-78
2023/08/08 04:55:27;;;;;;;1.25;1.15;;;21.00;52.60;;;;;;5019522;28;20258;-78
2023/08/08 04:57:55;;;;;;;1.42;1.33;;;21.00;52.60;;;;;;5018989;28;20211;-78
2023/08/08 05:00:22;;;;;;;1.50;1.15;;;21.00;52.60;;;;;;5019864;28;20223;-79
2023/08/08 05:02:49;;;;;;;1.20;1.00;;;21.10;52.70;;;;;;5020514;28;20204;-79
2023/08/08 05:05:17;;;;;;;1.30;1.20;;;21.10;52.60;;;;;;5020314;28;20196;-79
2023/08/08 05:07:44;;;;;;;2.03;1.20;;;21.10;52.50;;;;;;5019296;28;20208;-80
2023/08/08 05:10:13;;;;;;;1.42;1.10;;;21.10;52.60;;;;;;5019382;28;20319;-80
2023/08/08 05:12:40;;;;;;;1.33;1.23;;;21.10;52.00;;;;;;5019293;28;20216;-81
2023/08/08 05:15:08;;;;;;;1.65;1.20;;;21.20;51.90;;;;;;5019717;28;20247;-81
2023/08/08 05:17:35;;;;;;;2.67;1.35;;;21.20;52.10;;;;;;5020317;28;20204;-81
2023/08/08 05:20:02;;;;;;;3.00;1.63;;;21.30;51.70;;;;;;5020483;28;20262;-81
2023/08/08 05:22:29;;;;;;;2.35;1.60;;;21.30;51.30;;;;;;5019032;28;20545;-81
2023/08/08 05:24:56;;;;;;;1.50;1.40;;;21.40;51.40;;;;;;5018256;28;20249;-81
2023/08/08 05:27:25;;;;;;;3.05;1.40;;;21.50;51.10;;;;;;5019126;28;20563;-81
2023/08/08 05:29:52;;;;;;;1.60;1.42;;;21.60;50.80;;;;;;5018472;28;20204;-81
2023/08/08 05:32:19;;;;;;;2.53;1.45;;;21.60;50.50;;;;;;5018356;28;20223;-81
2023/08/08 05:34:46;;;;;;;1.40;1.30;;;21.90;50.40;;;;;;5018300;28;20222;-81
2023/08/08 05:37:13;;;;;;;1.40;1.25;;;22.00;50.10;;;;;;5018230;28;20204;-81
2023/08/08 05:39:40;;;;;;;1.65;1.17;;;22.00;49.80;;;;;;5017860;28;20250;-81
2023/08/08 05:42:08;;;;;;;2.40;1.33;;;22.20;49.50;;;;;;5018203;28;20227;-81
2023/08/08 05:44:36;;;;;;;1.23;1.10;;;22.30;49.30;;;;;;5017107;28;20196;-81
2023/08/08 05:47:04;;;;;;;1.92;1.45;;;22.40;49.10;;;;;;5016783;28;20216;-81
2023/08/08 05:49:31;;;;;;;2.78;1.42;;;22.50;49.20;;;;;;5034850;28;20211;-81
2023/08/08 05:51:58;;;;;;;2.15;1.63;;;22.60;48.90;;;;;;5017101;28;20227;-80
2023/08/08 05:54:25;;;;;;;1.63;1.40;;;22.70;48.70;;;;;;5019663;23;20249;-81
2023/08/08 05:56:53;;;;;;;1.35;1.25;;;22.70;48.60;;;;;;4978744;28;20201;-80
2023/08/08 05:59:20;;;;;;;1.98;1.30;;;22.80;48.60;;;;;;4993766;28;20197;-79
2023/08/08 06:01:48;;;;;;;1.40;1.30;;;22.90;48.50;;;;;;4977489;28;20287;-79
2023/08/08 06:04:16;;;;;;;2.35;1.30;;;22.90;48.40;;;;;;4977328;28;20202;-79
2023/08/08 06:06:43;;;;;;;1.42;1.20;;;23.00;48.20;;;;;;4977707;28;20212;-79
2023/08/08 06:09:10;;;;;;;2.10;1.38;;;23.10;48.10;;;;;;4978033;28;20202;-79
2023/08/08 06:11:37;;;;;;;1.40;1.30;;;23.20;47.80;;;;;;4977256;28;20225;-79
2023/08/08 06:14:05;;;;;;;3.03;1.40;;;23.40;47.60;;;;;;4977124;28;20215;-79
2023/08/08 06:16:32;;;;;;;1.30;1.20;;;23.50;47.40;;;;;;4977133;28;20201;-79
2023/08/08 06:19:00;;;;;;;1.50;1.10;;;23.60;47.20;;;;;;4977282;28;20202;-80
2023/08/08 06:21:27;;;;;;;1.50;1.40;;;23.70;47.00;;;;;;5094048;22;20493;-79
2023/08/08 06:23:55;;;;;;;2.90;1.50;;;23.80;47.00;;;;;;5016692;28;20207;-78
2023/08/08 06:26:22;;;;;;;1.45;1.35;;;23.80;46.70;;;;;;4999210;28;20225;-78
2023/08/08 06:28:51;;;;;;;1.38;1.27;;;23.90;46.60;;;;;;5031588;28;20709;-78
2023/08/08 06:31:19;;;;;;;1.90;1.30;;;24.00;46.40;;;;;;5017296;28;20223;-79
2023/08/08 06:33:46;;;;;;;2.15;1.50;;;24.20;46.20;;;;;;5018118;28;20257;-79
2023/08/08 06:36:15;;;;;;;2.28;1.85;;;24.20;46.10;;;;;;5018133;28;20204;-78
2023/08/08 06:38:42;;;;;;;1.90;1.60;;;24.30;46.00;;;;;;5017844;28;20192;-79
2023/08/08 06:41:09;;;;;;;3.40;1.50;;;24.40;45.80;;;;;;5016517;28;20216;-79
2023/08/08 06:43:37;;;;;;;1.95;1.50;;;24.40;45.70;;;;;;5000270;28;20204;-79
2023/08/08 06:46:04;;;;;;;3.80;1.60;;;24.50;45.60;;;;;;5016851;28;20298;-79
2023/08/08 06:48:31;;;;;;;1.83;1.52;;;24.50;45.40;;;;;;5016941;28;20200;-79
2023/08/08 06:50:58;;;;;;;3.63;1.67;;;24.60;45.40;;;;;;5016852;28;20330;-79
2023/08/08 06:53:26;;;;;;;3.58;1.60;;;24.60;45.30;;;;;;5017058;28;20188;-79
2023/08/08 06:55:53;;;;;;;1.95;1.45;;;24.50;45.20;;;;;;5000911;28;20204;-79
2023/08/08 06:58:20;;;;;;;1.83;1.50;;;24.60;45.30;;;;;;5001110;28;20218;-79
2023/08/08 07:00:47;;;;;;;2.05;1.40;;;24.60;45.20;;;;;;5017260;28;20251;-78
2023/08/08 07:03:14;;;;;;;1.70;1.60;;;24.60;45.10;;;;;;5017378;28;20348;-78
2023/08/08 07:05:41;;;;;;;1.40;1.30;;;24.70;45.00;;;;;;5001043;28;20200;-78
2023/08/08 07:08:09;;;;;;;1.70;1.40;;;24.70;45.00;;;;;;5018149;28;20200;-78
2023/08/08 07:10:37;;;;;;;1.60;1.40;;;24.80;45.10;;;;;;5002548;28;20775;-77
2023/08/08 07:13:05;;;;;;;2.42;1.33;;;24.80;45.00;;;;;;5017939;28;20286;-79
2023/08/08 07:15:32;;;;;;;2.60;1.85;;;24.90;44.90;;;;;;5004758;28;20227;-78
2023/08/08 07:18:00;;;;;;;1.77;1.40;;;24.90;44.80;;;;;;5022055;28;20227;-78
2023/08/08 07:20:27;;;;;;;2.08;1.50;;;24.90;44.70;;;;;;5022820;28;20573;-78
2023/08/08 07:22:54;;;;;;;1.58;1.48;;;25.00;44.60;;;;;;5022308;28;20667;-78
2023/08/08 07:25:21;;;;;;;2.05;1.60;;;25.00;44.50;;;;;;5005356;28;20192;-78
2023/08/08 07:27:50;;;;;;;1.50;1.40;;;25.10;44.50;;;;;;5023298;28;20663;-78
2023/08/08 07:30:17;;;;;;;2.05;1.70;;;25.10;44.40;;;;;;5009418;28;20244;-78
2023/08/08 07:32:44;;;;;;;1.48;1.30;;;25.10;44.30;;;;;;5024660;28;20212;-79
2023/08/08 07:35:12;;;;;;;3.58;1.70;;;25.10;44.20;;;;;;5022308;28;20204;-78
2023/08/08 07:37:39;;;;;;;3.38;1.73;;;25.20;44.10;;;;;;5019750;28;20344;-79
2023/08/08 07:40:14;;;;;;;2.42;1.48;;;25.30;44.00;;;;;;5021039;28;20250;-79
2023/08/08 07:42:41;;;;;;;1.98;1.50;;;25.30;43.90;;;;;;5021600;28;20191;-79
2023/08/08 07:45:10;;;;;;;2.28;1.60;;;25.40;43.80;;;;;;5022577;28;20654;-77
2023/08/08 07:47:37;;;;;;;1.60;1.50;;;25.40;43.50;;;;;;5022919;28;20299;-79
2023/08/08 07:50:05;;;;;;;2.25;1.70;;;25.60;43.50;;;;;;5022710;28;20196;-79
2023/08/08 07:52:33;;;;;;;2.30;1.70;;;25.60;43.30;;;;;;5022076;28;20223;-79
2023/08/08 07:55:00;;;;;;;2.35;1.60;;;25.70;43.10;;;;;;5022432;28;20203;-78
2023/08/08 07:57:28;;;;;;;3.25;1.90;;;25.80;43.00;;;;;;5022337;28;20230;-79
2023/08/08 07:59:55;;;;;;;3.65;1.73;;;25.80;42.80;;;;;;5022098;28;20207;-78
2023/08/08 08:02:24;;;;;;;2.88;1.63;;;25.80;42.80;;;;;;5021673;28;20192;-78
2023/08/08 08:04:51;;;;;;;3.00;1.85;;;25.70;42.80;;;;;;5021558;28;20204;-78
2023/08/08 08:07:18;;;;;;;2.25;1.60;;;25.70;43.00;;;;;;5020687;28;20200;-79
2023/08/08 08:09:46;;;;;;;2.60;1.50;;;25.60;43.00;;;;;;5019925;28;20716;-79
2023/08/08 08:12:13;;;;;;;1.98;1.55;;;25.50;43.20;;;;;;5019962;28;20585;-79
2023/08/08 08:14:39;;;;;;;1.98;1.52;;;25.40;43.40;;;;;;5019778;28;20200;-79
2023/08/08 08:17:07;;;;;;;1.73;1.52;;;25.40;43.60;;;;;;5018828;28;20200;-79
2023/08/08 08:19:35;;;;;;;2.50;1.70;;;25.30;43.80;;;;;;5019141;28;20196;-79
2023/08/08 08:22:03;;;;;;;1.67;1.55;;;25.20;43.90;;;;;;5018737;28;20232;-79
2023/08/08 08:24:30;;;;;;;1.80;1.50;;;25.20;44.10;;;;;;5019232;28;20184;-79
2023/08/08 08:26:57;;;;;;;2.90;1.63;;;25.20;44.20;;;;;;5019396;28;20200;-79
2023/08/08 08:29:24;;;;;;;2.17;1.52;;;25.20;44.60;;;;;;5019192;28;20196;-78
2023/08/08 08:31:51;;;;;;;4.03;1.63;;;25.20;44.80;;;;;;5018310;28;20228;-78
2023/08/08 08:34:18;;;;;;;1.67;1.50;;;25.20;44.80;;;;;;5018941;28;20203;-79
2023/08/08 08:36:47;;;;;;;2.17;1.40;;;25.20;44.80;;;;;;5018107;28;20614;-79
2023/08/08 08:39:14;;;;;;;1.90;1.50;;;25.20;44.80;;;;;;5018262;28;20414;-79
2023/08/08 08:41:41;;;;;;;2.28;1.70;;;25.20;44.70;;;;;;5019605;28;20686;-79
2023/08/08 08:44:08;;;;;;;1.40;1.30;;;25.20;44.60;;;;;;5019947;28;20199;-79
2023/08/08 08:46:35;;;;;;;1.98;1.45;;;25.20;44.60;;;;;;5019355;28;20204;-79
2023/08/08 08:49:02;;;;;;;1.58;1.48;;;25.20;44.60;;;;;;5019090;28;20257;-79
2023/08/08 08:51:29;;;;;;;1.80;1.30;;;25.30;44.60;;;;;;5018999;28;20243;-78
2023/08/08 08:53:58;;;;;;;1.50;1.38;;;25.30;44.50;;;;;;5018998;28;20227;-79
2023/08/08 08:56:25;;;;;;;1.33;1.23;;;25.30;44.40;;;;;;5019838;28;20289;-79
2023/08/08 08:58:53;;;;;;;2.22;1.70;;;25.40;44.40;;;;;;5018906;28;20270;-79
2023/08/08 09:01:20;;;;;;;1.63;1.52;;;25.30;44.30;;;;;;5018874;28;20212;-79
2023/08/08 09:03:46;;;;;;;2.70;1.60;;;25.30;44.30;;;;;;5018423;28;20192;-78
2023/08/08 09:06:13;;;;;;;1.45;1.27;;;25.40;44.30;;;;;;5018363;28;20212;-79
2023/08/08 09:08:41;;;;;;;1.38;1.27;;;25.40;44.10;;;;;;5018816;28;20666;-79
2023/08/08 09:11:09;;;;;;;2.65;1.40;;;25.40;44.20;;;;;;5002576;28;20298;-78
2023/08/08 09:13:38;;;;;;;1.60;1.50;;;25.40;44.10;;;;;;5018609;28;20231;-78
2023/08/08 09:16:06;;;;;;;1.60;1.23;;;25.40;44.00;;;;;;5018715;28;20231;-78
2023/08/08 09:18:32;;;;;;;1.92;1.30;;;25.50;43.90;;;;;;5036626;28;20192;-78
2023/08/08 09:21:00;;;;;;;1.70;1.27;;;25.50;43.80;;;;;;5018285;28;20219;-78
2023/08/08 09:23:27;;;;;;;1.35;1.20;;;25.50;43.60;;;;;;5018793;28;20710;-78
2023/08/08 09:25:54;;;;;;;1.65;1.33;;;25.60;43.50;;;;;;5018241;28;20246;-79
2023/08/08 09:28:23;;;;;;;2.42;1.33;;;25.60;43.30;;;;;;5017357;28;20200;-79
2023/08/08 09:30:50;;;;;;;2.08;1.30;;;25.70;43.40;;;;;;5017238;28;20224;-79
2023/08/08 09:33:18;;;;;;;2.13;1.75;;;25.70;43.10;;;;;;5017970;28;20223;-79
2023/08/08 09:35:45;;;;;;;1.50;1.40;;;25.60;43.00;;;;;;5017563;28;20192;-79
2023/08/08 09:38:12;;;;;;;1.48;1.33;;;25.60;43.30;;;;;;5017633;28;20278;-79
2023/08/08 09:40:40;;;;;;;1.73;1.40;;;25.60;43.10;;;;;;5002095;28;20263;-79
2023/08/08 09:43:08;;;;;;;1.80;1.40;;;25.60;43.30;;;;;;5018053;28;20196;-79
2023/08/08 09:45:41;;;;;;;2.30;1.40;;;25.60;43.30;;;;;;5017984;28;20204;-79
2023/08/08 09:48:08;;;;;;;2.50;1.45;;;25.60;43.20;;;;;;5017675;28;20191;-79
2023/08/08 09:50:36;;;;;;;1.27;1.17;;;25.60;43.20;;;;;;5016813;28;20224;-79
2023/08/08 09:53:03;;;;;;;1.77;1.20;;;25.60;43.00;;;;;;5001466;28;20224;-79
2023/08/08 09:55:31;;;;;;;1.77;1.45;;;25.60;43.00;;;;;;5017378;28;20200;-79
2023/08/08 09:57:58;;;;;;;1.40;1.30;;;25.60;43.00;;;;;;5017702;28;20230;-79
2023/08/08 10:00:27;;;;;;;1.50;1.33;;;25.50;43.00;;;;;;5017246;28;20247;-79
2023/08/08 10:02:56;;;;;;;1.35;1.25;;;25.60;43.20;;;;;;5017401;28;20196;-79
2023/08/08 10:05:22;;;;;;;1.30;1.20;;;25.60;43.30;;;;;;5017074;28;20266;-79
2023/08/08 10:07:49;;;;;;;2.05;1.30;;;25.60;43.30;;;;;;5017212;28;20276;-78
2023/08/08 10:10:18;;;;;;;1.50;1.40;;;25.60;43.30;;;;;;5017284;28;20216;-79
2023/08/08 10:12:46;;;;;;;1.88;1.40;;;25.60;43.30;;;;;;5035314;28;20706;-79
2023/08/08 10:15:12;;;;;;;1.52;1.30;;;25.50;43.20;;;;;;5017340;28;20200;-79
2023/08/08 10:17:40;;;;;;;1.40;1.30;;;25.50;43.20;;;;;;5017191;28;20249;-79
2023/08/08 10:20:11;;;;;;;1.58;1.40;;;25.50;43.30;;;;;;5017420;28;20203;-79
2023/08/08 10:22:39;;;;;;;1.30;1.20;;;25.40;43.30;;;;;;5017365;28;20258;-79
2023/08/08 10:25:08;;;;;;;1.23;1.10;;;25.40;43.50;;;;;;5016627;28;20566;-79
2023/08/08 10:27:35;;;;;;;1.52;1.30;;;25.40;43.40;;;;;;5017456;28;20225;-79
2023/08/08 10:30:04;;;;;;;1.38;1.20;;;25.30;43.20;;;;;;5016884;28;20670;-79
2023/08/08 10:32:39;;;;;;;1.33;1.23;;;25.40;43.60;;;;;;5016703;28;20227;-79
2023/08/08 10:35:09;;;;;;;1.40;1.30;;;25.40;43.80;;;;;;5017043;28;20199;-79
2023/08/08 10:37:36;;;;;;;1.40;1.30;;;25.40;43.60;;;;;;5016843;28;20204;-79
2023/08/08 10:40:05;;;;;;;1.25;1.15;;;25.40;43.70;;;;;;5016755;28;20255;-79
2023/08/08 10:42:33;;;;;;;2.10;1.60;;;25.30;43.70;;;;;;5034571;28;20192;-79
2023/08/08 10:45:01;;;;;;;1.30;1.20;;;25.30;43.60;;;;;;5016927;28;20207;-79
2023/08/08 10:47:31;;;;;;;1.50;1.30;;;25.30;43.60;;;;;;5016656;28;20199;-79
2023/08/08 10:50:03;;;;;;;1.88;1.40;;;25.40;43.60;;;;;;5016288;28;20199;-79
2023/08/08 10:52:35;;;;;;;1.65;1.40;;;25.40;43.50;;;;;;5017452;28;20196;-79
2023/08/08 10:55:04;;;;;;;1.35;1.20;;;25.40;43.50;;;;;;5017367;28;20609;-79
2023/08/08 10:57:31;;;;;;;2.13;1.23;;;25.40;43.50;;;;;;5016382;28;20204;-79
2023/08/08 11:00:20;;;;;;;1.50;1.40;;;25.30;43.70;;;;;;5016007;28;20200;-79
2023/08/08 11:02:47;;;;;;;1.40;1.30;;;25.40;44.10;;;;;;5019159;28;20246;-79
2023/08/08 11:05:14;;;;;;;1.38;1.27;;;25.30;43.90;;;;;;5019863;28;20202;-79
2023/08/08 11:07:42;;;;;;;1.40;1.30;;;25.30;43.90;;;;;;5020106;28;20202;-79
2023/08/08 11:10:10;;;;;;;1.40;1.30;;;25.30;44.30;;;;;;5019766;28;20215;-79
2023/08/08 11:12:37;;;;;;;1.40;1.30;;;25.30;43.90;;;;;;5020189;28;20282;-79
2023/08/08 11:15:05;;;;;;;1.40;1.30;;;25.40;44.00;;;;;;5020147;28;20257;-79
2023/08/08 11:17:33;;;;;;;1.30;1.20;;;25.40;43.80;;;;;;5022143;28;20195;-79
2023/08/08 11:20:01;;;;;;;1.60;1.50;;;25.30;43.50;;;;;;5019843;28;20231;-79
2023/08/08 11:22:29;;;;;;;1.30;1.20;;;25.30;43.60;;;;;;5004485;28;20621;-79
2023/08/08 11:25:03;;;;;;;1.67;1.30;;;25.30;43.50;;;;;;5020112;28;20207;-79
2023/08/08 11:27:30;;;;;;;1.20;1.02;;;25.30;43.60;;;;;;5021225;28;20192;-78
2023/08/08 11:29:58;;;;;;;1.45;1.35;;;25.30;43.90;;;;;;5020644;28;20250;-77
2023/08/08 11:32:25;;;;;;;1.25;1.00;;;25.30;43.70;;;;;;5020204;28;20195;-77
2023/08/08 11:34:52;;;;;;;1.42;1.15;;;25.30;43.90;;;;;;5020030;28;20679;-77
2023/08/08 11:37:19;;;;;;;1.25;1.15;;;25.30;43.90;;;;;;5020136;28;20200;-77
2023/08/08 11:39:47;;;;;;;1.25;1.15;;;25.30;43.80;;;;;;5019938;28;20283;-77
2023/08/08 11:42:15;;;;;;;1.80;1.10;;;25.30;44.00;;;;;;5003566;28;20212;-77
2023/08/08 11:44:42;;;;;;;1.70;1.30;;;25.40;44.00;;;;;;5020024;28;20188;-77
2023/08/08 11:47:10;;;;;;;1.65;1.20;;;25.30;43.90;;;;;;5019392;28;20200;-77
2023/08/08 11:49:43;;;;;;;1.77;1.40;;;25.30;43.70;;;;;;5019355;28;20200;-77
2023/08/08 11:52:11;;;;;;;1.23;1.13;;;25.30;43.30;;;;;;5018939;28;20231;-77
2023/08/08 11:54:38;;;;;;;1.85;1.25;;;25.30;43.10;;;;;;5018812;28;20236;-77
2023/08/08 11:57:06;;;;;;;1.33;1.10;;;25.30;43.40;;;;;;5018597;28;20299;-77
2023/08/08 11:59:34;;;;;;;1.17;1.10;;;25.30;43.40;;;;;;5018829;28;20207;-77
2023/08/08 12:02:01;;;;;;;1.60;1.30;;;25.30;43.40;;;;;;5018620;28;20622;-77
2023/08/08 12:04:29;;;;;;;1.10;1.10;;;25.30;43.20;;;;;;5019047;28;20520;-79
2023/08/08 12:07:03;;;;;;;1.83;1.30;;;25.20;43.30;;;;;;5018713;28;20208;-79
2023/08/08 12:09:32;;;;;;;1.40;1.30;;;25.30;43.90;;;;;;5019320;28;20202;-79
2023/08/08 12:12:00;;;;;;;1.20;1.10;;;25.20;44.00;;;;;;5004690;28;20254;-79
2023/08/08 12:14:28;;;;;;;1.40;1.30;;;25.30;44.00;;;;;;5018924;28;20324;-79
2023/08/08 12:16:56;;;;;;;1.35;1.25;;;25.30;44.00;;;;;;5019165;28;20192;-79
2023/08/08 12:19:24;;;;;;;1.50;1.40;;;25.30;43.90;;;;;;5019226;28;20192;-79
2023/08/08 12:21:52;;;;;;;1.35;1.25;;;25.30;43.90;;;;;;5019533;28;20298;-78
2023/08/08 12:24:19;;;;;;;1.73;1.45;;;25.30;43.90;;;;;;5019326;28;20219;-78
2023/08/08 12:26:45;;;;;;;2.03;1.20;;;25.20;43.80;;;;;;5019132;28;20195;-78
2023/08/08 12:29:13;;;;;;;1.15;1.10;;;25.30;43.70;;;;;;5020480;28;20257;-78
2023/08/08 12:31:40;;;;;;;1.77;1.35;;;25.20;43.90;;;;;;5019362;28;20230;-77
2023/08/08 12:34:09;;;;;;;1.23;1.00;;;25.20;44.30;;;;;;5019025;28;20224;-78
2023/08/08 12:36:36;;;;;;;1.25;1.17;;;25.20;44.30;;;;;;5019159;28;20580;-78
2023/08/08 12:39:04;;;;;;;1.23;1.13;;;25.20;44.20;;;;;;5018857;28;20666;-78
2023/08/08 12:41:31;;;;;;;1.42;1.33;;;25.20;44.40;;;;;;5036760;28;20214;-78
2023/08/08 12:43:59;;;;;;;1.08;1.08;;;25.20;44.50;;;;;;5018150;28;20196;-78
2023/08/08 12:46:26;;;;;;;1.45;1.20;;;25.10;43.90;;;;;;5002506;28;20188;-78
2023/08/08 12:48:53;;;;;;;1.30;1.20;;;25.10;43.80;;;;;;5018420;28;20196;-78
2023/08/08 12:51:21;;;;;;;1.30;1.20;;;25.10;44.00;;;;;;5018439;28;20638;-78